TAF and METAR

Could not understand the following METAR

YPBO 011600Z AUTO 26002KT 9999 // NCD 23/M02 Q1011
No TAF available for Paraburdoo Airport
Paraburdoo Airport in Australia at 1292m

Latest 5 airports